sensor_id;sensor_type;location;lat;lon;timestamp;pressure;altitude;pressure_sealevel;temperature;humidity
39267;BME280;24967;51.154;13.812;2023-05-12T00:00:21;99450.78;;;16.38;55.32
39267;BME280;24967;51.154;13.812;2023-05-12T00:02:49;99448.47;;;16.35;55.42
39267;BME280;24967;51.154;13.812;2023-05-12T00:05:15;99450.50;;;16.33;55.47
39267;BME280;24967;51.154;13.812;2023-05-12T00:07:42;99447.47;;;16.58;54.81
39267;BME280;24967;51.154;13.812;2023-05-12T00:10:08;99462.03;;;16.48;54.74
39267;BME280;24967;51.154;13.812;2023-05-12T00:12:35;99454.88;;;16.56;54.40
39267;BME280;24967;51.154;13.812;2023-05-12T00:15:02;99468.09;;;16.36;56.92
39267;BME280;24967;51.154;13.812;2023-05-12T00:17:28;99470.88;;;16.27;57.42
39267;BME280;24967;51.154;13.812;2023-05-12T00:19:56;99477.78;;;16.00;58.64
39267;BME280;24967;51.154;13.812;2023-05-12T00:22:22;99469.34;;;16.03;58.03
39267;BME280;24967;51.154;13.812;2023-05-12T00:24:50;99471.09;;;16.11;57.56
39267;BME280;24967;51.154;13.812;2023-05-12T00:27:17;99468.00;;;15.93;57.30
39267;BME280;24967;51.154;13.812;2023-05-12T00:29:43;99461.81;;;15.92;57.02
39267;BME280;24967;51.154;13.812;2023-05-12T00:32:10;99466.13;;;16.08;56.64
39267;BME280;24967;51.154;13.812;2023-05-12T00:34:36;99458.81;;;16.17;56.25
39267;BME280;24967;51.154;13.812;2023-05-12T00:37:04;99458.41;;;16.20;56.30
39267;BME280;24967;51.154;13.812;2023-05-12T00:39:30;99452.53;;;16.10;56.58
39267;BME280;24967;51.154;13.812;2023-05-12T00:41:58;99458.25;;;16.07;56.01
39267;BME280;24967;51.154;13.812;2023-05-12T00:44:24;99455.31;;;16.01;54.86
39267;BME280;24967;51.154;13.812;2023-05-12T00:46:51;99451.78;;;16.16;54.95
39267;BME280;24967;51.154;13.812;2023-05-12T00:49:19;99456.09;;;16.32;54.78
39267;BME280;24967;51.154;13.812;2023-05-12T00:51:45;99455.09;;;16.18;57.34
39267;BME280;24967;51.154;13.812;2023-05-12T00:54:13;99461.44;;;15.95;59.12
39267;BME280;24967;51.154;13.812;2023-05-12T00:56:39;99461.88;;;16.14;58.78
39267;BME280;24967;51.154;13.812;2023-05-12T00:59:06;99462.38;;;16.24;58.62
39267;BME280;24967;51.154;13.812;2023-05-12T01:01:33;99470.50;;;16.31;58.25
39267;BME280;24967;51.154;13.812;2023-05-12T01:04:01;99474.59;;;16.26;58.08
39267;BME280;24967;51.154;13.812;2023-05-12T01:06:30;99467.19;;;16.29;58.05
39267;BME280;24967;51.154;13.812;2023-05-12T01:08:58;99476.34;;;16.34;57.81
39267;BME280;24967;51.154;13.812;2023-05-12T01:11:27;99470.78;;;16.36;57.61
39267;BME280;24967;51.154;13.812;2023-05-12T01:13:53;99470.78;;;16.36;57.33
39267;BME280;24967;51.154;13.812;2023-05-12T01:16:22;99464.38;;;16.37;57.50
39267;BME280;24967;51.154;13.812;2023-05-12T01:18:50;99461.91;;;16.35;57.58
39267;BME280;24967;51.154;13.812;2023-05-12T01:21:18;99466.22;;;16.36;57.71
39267;BME280;24967;51.154;13.812;2023-05-12T01:24:01;99463.09;;;16.33;57.62
39267;BME280;24967;51.154;13.812;2023-05-12T01:26:32;99465.13;;;16.31;57.54
39267;BME280;24967;51.154;13.812;2023-05-12T01:29:00;99473.19;;;16.31;57.55
39267;BME280;24967;51.154;13.812;2023-05-12T01:31:27;99463.47;;;16.30;57.83
39267;BME280;24967;51.154;13.812;2023-05-12T01:33:54;99466.16;;;16.30;57.95
39267;BME280;24967;51.154;13.812;2023-05-12T01:36:21;99468.03;;;16.29;58.09
39267;BME280;24967;51.154;13.812;2023-05-12T01:38:47;99474.84;;;16.32;58.36
39267;BME280;24967;51.154;13.812;2023-05-12T01:41:13;99465.34;;;16.29;58.27
39267;BME280;24967;51.154;13.812;2023-05-12T01:43:42;99481.59;;;16.27;58.47
39267;BME280;24967;51.154;13.812;2023-05-12T01:46:08;99470.81;;;16.21;58.60
39267;BME280;24967;51.154;13.812;2023-05-12T01:48:35;99475.34;;;16.20;58.86
39267;BME280;24967;51.154;13.812;2023-05-12T01:51:01;99469.53;;;16.17;59.14
39267;BME280;24967;51.154;13.812;2023-05-12T01:53:28;99470.34;;;16.17;59.13
39267;BME280;24967;51.154;13.812;2023-05-12T01:55:54;99471.09;;;16.11;59.39
39267;BME280;24967;51.154;13.812;2023-05-12T01:58:20;99479.53;;;16.08;59.30
39267;BME280;24967;51.154;13.812;2023-05-12T02:00:48;99481.00;;;16.11;59.27
39267;BME280;24967;51.154;13.812;2023-05-12T02:03:15;99484.25;;;16.06;59.31
39267;BME280;24967;51.154;13.812;2023-05-12T02:05:41;99482.31;;;16.00;59.70
39267;BME280;24967;51.154;13.812;2023-05-12T02:08:07;99482.13;;;16.01;59.73
39267;BME280;24967;51.154;13.812;2023-05-12T02:10:34;99483.34;;;15.99;59.78
39267;BME280;24967;51.154;13.812;2023-05-12T02:13:01;99489.53;;;15.99;59.88
39267;BME280;24967;51.154;13.812;2023-05-12T02:15:27;99485.19;;;15.98;59.85
39267;BME280;24967;51.154;13.812;2023-05-12T02:17:55;99486.19;;;15.97;59.80
39267;BME280;24967;51.154;13.812;2023-05-12T02:20:22;99492.22;;;15.85;60.07
39267;BME280;24967;51.154;13.812;2023-05-12T02:22:49;99491.25;;;15.63;61.33
39267;BME280;24967;51.154;13.812;2023-05-12T02:25:15;99489.03;;;15.66;61.16
39267;BME280;24967;51.154;13.812;2023-05-12T02:27:41;99494.41;;;15.66;61.02
39267;BME280;24967;51.154;13.812;2023-05-12T02:30:09;99492.41;;;15.68;60.98
39267;BME280;24967;51.154;13.812;2023-05-12T02:32:35;99493.41;;;15.67;60.85
39267;BME280;24967;51.154;13.812;2023-05-12T02:35:04;99499.75;;;15.66;60.69
39267;BME280;24967;51.154;13.812;2023-05-12T02:37:31;99490.44;;;15.62;60.58
39267;BME280;24967;51.154;13.812;2023-05-12T02:39:57;99494.13;;;15.61;60.47
39267;BME280;24967;51.154;13.812;2023-05-12T02:42:23;99493.75;;;15.64;60.52
39267;BME280;24967;51.154;13.812;2023-05-12T02:44:52;99494.75;;;15.48;61.21
39267;BME280;24967;51.154;13.812;2023-05-12T02:47:19;99495.13;;;15.45;61.36
39267;BME280;24967;51.154;13.812;2023-05-12T02:49:45;99496.97;;;15.45;61.30
39267;BME280;24967;51.154;13.812;2023-05-12T02:52:13;99490.97;;;15.43;61.28
39267;BME280;24967;51.154;13.812;2023-05-12T02:54:39;99488.47;;;15.41;61.46
39267;BME280;24967;51.154;13.812;2023-05-12T02:57:06;99486.34;;;15.37;61.66
39267;BME280;24967;51.154;13.812;2023-05-12T02:59:32;99483.09;;;15.26;61.75
39267;BME280;24967;51.154;13.812;2023-05-12T03:01:59;99478.56;;;15.27;61.72
39267;BME280;24967;51.154;13.812;2023-05-12T03:04:25;99479.97;;;15.23;61.78
39267;BME280;24967;51.154;13.812;2023-05-12T03:06:51;99485.03;;;15.18;61.44
39267;BME280;24967;51.154;13.812;2023-05-12T03:09:19;99487.91;;;15.16;61.89
39267;BME280;24967;51.154;13.812;2023-05-12T03:11:46;99483.25;;;15.10;61.69
39267;BME280;24967;51.154;13.812;2023-05-12T03:14:12;99484.81;;;15.04;61.67
39267;BME280;24967;51.154;13.812;2023-05-12T03:16:38;99487.03;;;15.01;61.75
39267;BME280;24967;51.154;13.812;2023-05-12T03:19:05;99489.19;;;14.97;61.75
39267;BME280;24967;51.154;13.812;2023-05-12T03:21:31;99486.72;;;14.96;61.90
39267;BME280;24967;51.154;13.812;2023-05-12T03:23:58;99488.75;;;14.94;61.77
39267;BME280;24967;51.154;13.812;2023-05-12T03:26:25;99491.41;;;14.94;61.69
39267;BME280;24967;51.154;13.812;2023-05-12T03:28:52;99501.47;;;14.92;61.91
39267;BME280;24967;51.154;13.812;2023-05-12T03:31:18;99493.44;;;14.92;61.92
39267;BME280;24967;51.154;13.812;2023-05-12T03:33:45;99493.44;;;14.92;61.78
39267;BME280;24967;51.154;13.812;2023-05-12T03:36:11;99495.13;;;14.93;61.54
39267;BME280;24967;51.154;13.812;2023-05-12T03:38:38;99499.63;;;14.92;62.03
39267;BME280;24967;51.154;13.812;2023-05-12T03:41:05;99500.47;;;14.93;61.71
39267;BME280;24967;51.154;13.812;2023-05-12T03:43:33;99494.91;;;14.94;61.85
39267;BME280;24967;51.154;13.812;2023-05-12T03:46:00;99499.28;;;14.95;61.54
39267;BME280;24967;51.154;13.812;2023-05-12T03:48:26;99503.25;;;14.99;61.74
39267;BME280;24967;51.154;13.812;2023-05-12T03:50:53;99502.22;;;15.00;61.97
39267;BME280;24967;51.154;13.812;2023-05-12T03:53:19;99497.72;;;15.01;61.82
39267;BME280;24967;51.154;13.812;2023-05-12T03:55:46;99498.38;;;15.03;61.71
39267;BME280;24967;51.154;13.812;2023-05-12T03:58:12;99498.38;;;15.03;61.85
39267;BME280;24967;51.154;13.812;2023-05-12T04:00:40;99499.03;;;15.05;62.03
39267;BME280;24967;51.154;13.812;2023-05-12T04:03:06;99500.69;;;15.06;61.96
39267;BME280;24967;51.154;13.812;2023-05-12T04:05:33;99500.06;;;15.04;61.58
39267;BME280;24967;51.154;13.812;2023-05-12T04:08:00;99498.00;;;15.06;61.34
39267;BME280;24967;51.154;13.812;2023-05-12T04:10:27;99509.13;;;15.18;60.75
39267;BME280;24967;51.154;13.812;2023-05-12T04:12:53;99508.47;;;15.16;61.19
39267;BME280;24967;51.154;13.812;2023-05-12T04:15:20;99507.63;;;15.15;61.68
39267;BME280;24967;51.154;13.812;2023-05-12T04:17:47;99506.44;;;15.18;61.87
39267;BME280;24967;51.154;13.812;2023-05-12T04:20:15;99511.78;;;15.18;62.01
39267;BME280;24967;51.154;13.812;2023-05-12T04:22:41;99514.84;;;15.15;62.30
39267;BME280;24967;51.154;13.812;2023-05-12T04:25:08;99511.13;;;15.16;62.68
39267;BME280;24967;51.154;13.812;2023-05-12T04:27:35;99511.50;;;15.12;63.07
39267;BME280;24967;51.154;13.812;2023-05-12T04:30:01;99518.53;;;15.14;63.28
39267;BME280;24967;51.154;13.812;2023-05-12T04:32:28;99513.75;;;15.24;63.29
39267;BME280;24967;51.154;13.812;2023-05-12T04:34:56;99510.72;;;15.27;63.03
39267;BME280;24967;51.154;13.812;2023-05-12T04:37:22;99515.34;;;15.33;63.77
39267;BME280;24967;51.154;13.812;2023-05-12T04:39:49;99517.75;;;15.43;63.44
39267;BME280;24967;51.154;13.812;2023-05-12T04:42:15;99517.88;;;15.49;63.41
39267;BME280;24967;51.154;13.812;2023-05-12T04:44:42;99518.78;;;15.56;63.53
39267;BME280;24967;51.154;13.812;2023-05-12T04:47:10;99517.22;;;15.62;63.47
39267;BME280;24967;51.154;13.812;2023-05-12T04:49:36;99512.50;;;15.64;63.13
39267;BME280;24967;51.154;13.812;2023-05-12T04:52:05;99521.31;;;15.73;63.11
39267;BME280;24967;51.154;13.812;2023-05-12T04:54:31;99522.44;;;15.78;62.87
39267;BME280;24967;51.154;13.812;2023-05-12T04:56:57;99523.25;;;15.79;62.74
39267;BME280;24967;51.154;13.812;2023-05-12T04:59:24;99524.66;;;15.90;62.36
39267;BME280;24967;51.154;13.812;2023-05-12T05:01:50;99525.56;;;15.82;62.02
39267;BME280;24967;51.154;13.812;2023-05-12T05:04:17;99519.22;;;15.83;62.06
39267;BME280;24967;51.154;13.812;2023-05-12T05:06:43;99523.63;;;15.91;62.32
39267;BME280;24967;51.154;13.812;2023-05-12T05:09:11;99529.94;;;15.98;61.84
39267;BME280;24967;51.154;13.812;2023-05-12T05:11:37;99528.91;;;15.99;61.30
39267;BME280;24967;51.154;13.812;2023-05-12T05:14:04;99527.63;;;15.95;60.11
39267;BME280;24967;51.154;13.812;2023-05-12T05:16:30;99532.34;;;16.08;60.51
39267;BME280;24967;51.154;13.812;2023-05-12T05:18:57;99532.78;;;16.11;60.54
39267;BME280;24967;51.154;13.812;2023-05-12T05:21:23;99533.88;;;16.32;60.63
39267;BME280;24967;51.154;13.812;2023-05-12T05:23:49;99535.56;;;16.54;60.32
39267;BME280;24967;51.154;13.812;2023-05-12T05:26:18;99534.25;;;17.01;58.39
39267;BME280;24967;51.154;13.812;2023-05-12T05:28:45;99540.53;;;17.36;56.76
39267;BME280;24967;51.154;13.812;2023-05-12T05:31:14;99538.00;;;17.84;56.03
39267;BME280;24967;51.154;13.812;2023-05-12T05:33:41;99538.25;;;18.31;54.31
39267;BME280;24967;51.154;13.812;2023-05-12T05:36:07;99539.78;;;18.53;54.01
39267;BME280;24967;51.154;13.812;2023-05-12T05:38:34;99540.53;;;19.09;53.53
39267;BME280;24967;51.154;13.812;2023-05-12T05:41:00;99542.44;;;19.68;50.83
39267;BME280;24967;51.154;13.812;2023-05-12T05:43:28;99534.31;;;19.81;50.23
39267;BME280;24967;51.154;13.812;2023-05-12T05:45:55;99539.91;;;19.86;48.97
39267;BME280;24967;51.154;13.812;2023-05-12T05:48:22;99541.28;;;20.16;49.04
39267;BME280;24967;51.154;13.812;2023-05-12T05:50:49;99537.78;;;20.60;48.05
39267;BME280;24967;51.154;13.812;2023-05-12T05:53:16;99544.47;;;21.21;48.73
39267;BME280;24967;51.154;13.812;2023-05-12T05:55:43;99545.59;;;21.63;46.08
39267;BME280;24967;51.154;13.812;2023-05-12T05:58:10;99551.13;;;21.93;45.16
39267;BME280;24967;51.154;13.812;2023-05-12T06:00:37;99552.00;;;22.31;44.14
39267;BME280;24967;51.154;13.812;2023-05-12T06:03:04;99555.13;;;22.64;42.63
39267;BME280;24967;51.154;13.812;2023-05-12T06:05:30;99552.59;;;22.81;42.27
39267;BME280;24967;51.154;13.812;2023-05-12T06:07:57;99556.22;;;23.05;41.92
39267;BME280;24967;51.154;13.812;2023-05-12T06:10:23;99553.31;;;23.19;41.34
39267;BME280;24967;51.154;13.812;2023-05-12T06:12:50;99561.97;;;23.27;40.20
39267;BME280;24967;51.154;13.812;2023-05-12T06:15:16;99562.22;;;23.49;40.92
39267;BME280;24967;51.154;13.812;2023-05-12T06:17:44;99559.38;;;23.44;40.74
39267;BME280;24967;51.154;13.812;2023-05-12T06:20:11;99559.19;;;23.81;40.74
39267;BME280;24967;51.154;13.812;2023-05-12T06:22:38;99556.72;;;23.80;40.33
39267;BME280;24967;51.154;13.812;2023-05-12T06:25:07;99560.13;;;23.87;40.97
39267;BME280;24967;51.154;13.812;2023-05-12T06:27:33;99556.84;;;23.96;39.39
39267;BME280;24967;51.154;13.812;2023-05-12T06:29:59;99558.00;;;23.77;38.93
39267;BME280;24967;51.154;13.812;2023-05-12T06:32:26;99559.91;;;24.00;40.56
39267;BME280;24967;51.154;13.812;2023-05-12T06:34:54;99555.72;;;24.21;40.28
39267;BME280;24967;51.154;13.812;2023-05-12T06:37:20;99570.94;;;24.45;39.38
39267;BME280;24967;51.154;13.812;2023-05-12T06:39:46;99572.88;;;24.62;38.28
39267;BME280;24967;51.154;13.812;2023-05-12T06:42:13;99561.41;;;24.60;38.23
39267;BME280;24967;51.154;13.812;2023-05-12T06:44:39;99563.50;;;24.17;36.72
39267;BME280;24967;51.154;13.812;2023-05-12T06:47:06;99562.69;;;24.05;39.34
39267;BME280;24967;51.154;13.812;2023-05-12T06:49:33;99558.66;;;24.31;38.14
39267;BME280;24967;51.154;13.812;2023-05-12T06:52:03;99553.56;;;24.35;38.92
39267;BME280;24967;51.154;13.812;2023-05-12T06:54:29;99555.94;;;24.31;38.81
39267;BME280;24967;51.154;13.812;2023-05-12T06:56:55;99555.28;;;24.64;38.97
39267;BME280;24967;51.154;13.812;2023-05-12T06:59:22;99557.53;;;24.56;39.16
39267;BME280;24967;51.154;13.812;2023-05-12T07:01:48;99552.16;;;24.20;38.13
39267;BME280;24967;51.154;13.812;2023-05-12T07:04:15;99563.75;;;24.16;37.71
39267;BME280;24967;51.154;13.812;2023-05-12T07:06:41;99553.56;;;24.35;39.12
39267;BME280;24967;51.154;13.812;2023-05-12T07:09:09;99559.75;;;24.18;40.21
39267;BME280;24967;51.154;13.812;2023-05-12T07:11:35;99547.19;;;24.29;40.50
39267;BME280;24967;51.154;13.812;2023-05-12T07:14:02;99553.84;;;24.21;38.90
39267;BME280;24967;51.154;13.812;2023-05-12T07:16:28;99551.25;;;24.15;36.57
39267;BME280;24967;51.154;13.812;2023-05-12T07:18:55;99547.81;;;24.19;35.79
39267;BME280;24967;51.154;13.812;2023-05-12T07:21:21;99548.78;;;24.02;37.61
39267;BME280;24967;51.154;13.812;2023-05-12T07:23:48;99548.09;;;23.94;35.49
39267;BME280;24967;51.154;13.812;2023-05-12T07:26:16;99545.50;;;23.76;37.39
39267;BME280;24967;51.154;13.812;2023-05-12T07:28:42;99532.50;;;23.66;34.95
39267;BME280;24967;51.154;13.812;2023-05-12T07:31:09;99546.16;;;23.48;36.61
39267;BME280;24967;51.154;13.812;2023-05-12T07:33:35;99551.47;;;23.43;37.94
39267;BME280;24967;51.154;13.812;2023-05-12T07:36:02;99549.81;;;23.30;37.94
39267;BME280;24967;51.154;13.812;2023-05-12T07:38:29;99545.09;;;23.37;36.56
39267;BME280;24967;51.154;13.812;2023-05-12T07:40:56;99542.53;;;23.42;38.26
39267;BME280;24967;51.154;13.812;2023-05-12T07:43:24;99541.47;;;23.55;37.75
39267;BME280;24967;51.154;13.812;2023-05-12T07:45:50;99542.75;;;23.52;38.50
39267;BME280;24967;51.154;13.812;2023-05-12T07:48:17;99546.34;;;23.76;38.49
39267;BME280;24967;51.154;13.812;2023-05-12T07:50:43;99551.28;;;23.80;37.25
39267;BME280;24967;51.154;13.812;2023-05-12T07:53:09;99546.81;;;23.73;35.94
39267;BME280;24967;51.154;13.812;2023-05-12T07:55:37;99537.00;;;23.61;36.42
39267;BME280;24967;51.154;13.812;2023-05-12T07:58:03;99548.66;;;23.61;36.18
39267;BME280;24967;51.154;13.812;2023-05-12T08:00:31;99546.97;;;23.25;36.75
39267;BME280;24967;51.154;13.812;2023-05-12T08:02:57;99545.56;;;23.34;38.04
39267;BME280;24967;51.154;13.812;2023-05-12T08:05:24;99556.56;;;23.39;37.51
39267;BME280;24967;51.154;13.812;2023-05-12T08:07:50;99551.59;;;23.48;35.93
39267;BME280;24967;51.154;13.812;2023-05-12T08:10:17;99550.75;;;23.24;36.29
39267;BME280;24967;51.154;13.812;2023-05-12T08:12:44;99543.91;;;23.21;37.59
39267;BME280;24967;51.154;13.812;2023-05-12T08:15:11;99550.28;;;23.39;38.14
39267;BME280;24967;51.154;13.812;2023-05-12T08:17:38;99549.81;;;23.53;38.25
39267;BME280;24967;51.154;13.812;2023-05-12T08:20:06;99547.03;;;23.72;37.70
39267;BME280;24967;51.154;13.812;2023-05-12T08:22:33;99548.78;;;23.90;37.01
39267;BME280;24967;51.154;13.812;2023-05-12T08:24:59;99549.59;;;23.90;37.06
39267;BME280;24967;51.154;13.812;2023-05-12T08:27:26;99551.63;;;23.83;37.34
39267;BME280;24967;51.154;13.812;2023-05-12T08:29:53;99545.03;;;23.91;37.76
39267;BME280;24967;51.154;13.812;2023-05-12T08:32:20;99547.16;;;23.89;36.89
39267;BME280;24967;51.154;13.812;2023-05-12T08:34:48;99542.88;;;24.05;37.21
39267;BME280;24967;51.154;13.812;2023-05-12T08:37:14;99553.38;;;24.01;36.89
39267;BME280;24967;51.154;13.812;2023-05-12T08:39:41;99551.13;;;24.21;36.88
39267;BME280;24967;51.154;13.812;2023-05-12T08:42:17;99542.97;;;24.21;38.15
39267;BME280;24967;51.154;13.812;2023-05-12T08:44:44;99544.09;;;24.37;36.38
39267;BME280;24967;51.154;13.812;2023-05-12T08:47:11;99544.28;;;24.19;36.05
39267;BME280;24967;51.154;13.812;2023-05-12T08:49:40;99549.34;;;24.27;35.91
39267;BME280;24967;51.154;13.812;2023-05-12T08:52:11;99560.38;;;24.61;34.49
39267;BME280;24967;51.154;13.812;2023-05-12T08:54:38;99547.63;;;24.50;36.78
39267;BME280;24967;51.154;13.812;2023-05-12T08:57:05;99562.03;;;24.50;37.74
39267;BME280;24967;51.154;13.812;2023-05-12T08:59:32;99554.44;;;24.64;35.89
39267;BME280;24967;51.154;13.812;2023-05-12T09:02:00;99559.69;;;24.82;36.65
39267;BME280;24967;51.154;13.812;2023-05-12T09:04:28;99555.72;;;24.73;36.67
39267;BME280;24967;51.154;13.812;2023-05-12T09:06:55;99562.53;;;25.04;36.26
39267;BME280;24967;51.154;13.812;2023-05-12T09:09:24;99554.25;;;24.82;35.41
39267;BME280;24967;51.154;13.812;2023-05-12T09:11:54;99557.16;;;24.92;34.69
39267;BME280;24967;51.154;13.812;2023-05-12T09:14:23;99555.41;;;24.86;36.34
39267;BME280;24967;51.154;13.812;2023-05-12T09:16:53;99555.94;;;25.00;34.45
39267;BME280;24967;51.154;13.812;2023-05-12T09:19:20;99552.19;;;24.89;35.01
39267;BME280;24967;51.154;13.812;2023-05-12T09:21:47;99561.75;;;24.92;35.45
39267;BME280;24967;51.154;13.812;2023-05-12T09:24:14;99554.63;;;25.03;35.48
39267;BME280;24967;51.154;13.812;2023-05-12T09:26:46;99554.63;;;25.03;36.32
39267;BME280;24967;51.154;13.812;2023-05-12T09:29:13;99558.59;;;25.12;37.05
39267;BME280;24967;51.154;13.812;2023-05-12T09:31:48;99545.53;;;25.43;35.21
39267;BME280;24967;51.154;13.812;2023-05-12T09:34:14;99554.84;;;25.30;35.01
39267;BME280;24967;51.154;13.812;2023-05-12T09:36:41;99558.31;;;25.25;35.05
39267;BME280;24967;51.154;13.812;2023-05-12T09:39:08;99554.00;;;25.29;34.43
39267;BME280;24967;51.154;13.812;2023-05-12T09:41:35;99553.94;;;25.24;34.42
39267;BME280;24967;51.154;13.812;2023-05-12T09:44:03;99549.31;;;25.42;34.14
39267;BME280;24967;51.154;13.812;2023-05-12T09:46:30;99551.16;;;25.36;35.36
39267;BME280;24967;51.154;13.812;2023-05-12T09:48:57;99554.50;;;25.43;36.08
39267;BME280;24967;51.154;13.812;2023-05-12T09:51:24;99550.31;;;25.35;36.08
39267;BME280;24967;51.154;13.812;2023-05-12T09:53:51;99549.16;;;25.48;36.76
39267;BME280;24967;51.154;13.812;2023-05-12T09:56:18;99547.94;;;25.39;36.73
39267;BME280;24967;51.154;13.812;2023-05-12T09:58:47;99548.06;;;25.16;36.41
39267;BME280;24967;51.154;13.812;2023-05-12T10:01:16;99553.63;;;25.21;37.35
39267;BME280;24967;51.154;13.812;2023-05-12T10:03:44;99551.31;;;25.46;37.36
39267;BME280;24967;51.154;13.812;2023-05-12T10:06:13;99549.00;;;25.21;35.84
39267;BME280;24967;51.154;13.812;2023-05-12T10:08:48;99553.34;;;25.22;35.58
39267;BME280;24967;51.154;13.812;2023-05-12T10:11:16;99557.25;;;24.98;35.66
39267;BME280;24967;51.154;13.812;2023-05-12T10:13:42;99556.38;;;24.80;36.39
39267;BME280;24967;51.154;13.812;2023-05-12T10:16:09;99559.41;;;24.67;37.03
39267;BME280;24967;51.154;13.812;2023-05-12T10:18:38;99559.63;;;24.65;38.07
39267;BME280;24967;51.154;13.812;2023-05-12T10:21:05;99554.75;;;24.96;37.45
39267;BME280;24967;51.154;13.812;2023-05-12T10:23:33;99551.16;;;25.07;38.30
39267;BME280;24967;51.154;13.812;2023-05-12T10:26:01;99554.44;;;25.21;37.22
39267;BME280;24967;51.154;13.812;2023-05-12T10:28:28;99548.56;;;25.29;35.73
39267;BME280;24967;51.154;13.812;2023-05-12T10:30:55;99546.78;;;24.61;35.74
39267;BME280;24967;51.154;13.812;2023-05-12T10:33:22;99552.06;;;24.67;36.61
39267;BME280;24967;51.154;13.812;2023-05-12T10:35:51;99548.97;;;24.76;36.86
39267;BME280;24967;51.154;13.812;2023-05-12T10:38:17;99547.03;;;25.05;37.30
39267;BME280;24967;51.154;13.812;2023-05-12T10:40:50;99558.81;;;25.10;36.56
39267;BME280;24967;51.154;13.812;2023-05-12T10:43:20;99552.97;;;25.30;36.67
39267;BME280;24967;51.154;13.812;2023-05-12T10:46:05;99552.03;;;25.25;36.09
39267;BME280;24967;51.154;13.812;2023-05-12T10:48:31;99548.25;;;25.43;35.66
39267;BME280;24967;51.154;13.812;2023-05-12T10:51:06;99545.50;;;25.59;35.26
39267;BME280;24967;51.154;13.812;2023-05-12T10:53:33;99549.72;;;25.17;36.09
39267;BME280;24967;51.154;13.812;2023-05-12T10:56:02;99546.19;;;25.16;36.42
39267;BME280;24967;51.154;13.812;2023-05-12T10:58:29;99546.84;;;25.40;35.03
39267;BME280;24967;51.154;13.812;2023-05-12T11:01:02;99551.38;;;25.51;35.02
39267;BME280;24967;51.154;13.812;2023-05-12T11:03:29;99544.91;;;25.74;36.38
39267;BME280;24967;51.154;13.812;2023-05-12T11:05:58;99547.47;;;25.98;36.33
39267;BME280;24967;51.154;13.812;2023-05-12T11:08:26;99539.69;;;26.28;34.66
39267;BME280;24967;51.154;13.812;2023-05-12T11:10:53;99543.19;;;25.68;36.11
39267;BME280;24967;51.154;13.812;2023-05-12T11:13:20;99535.38;;;25.55;35.59
39267;BME280;24967;51.154;13.812;2023-05-12T11:15:46;99544.88;;;25.52;34.81
39267;BME280;24967;51.154;13.812;2023-05-12T11:18:19;99532.84;;;26.04;33.90
39267;BME280;24967;51.154;13.812;2023-05-12T11:20:45;99546.16;;;25.84;34.53
39267;BME280;24967;51.154;13.812;2023-05-12T11:23:22;99552.09;;;25.80;34.50
39267;BME280;24967;51.154;13.812;2023-05-12T11:25:50;99549.72;;;25.50;35.62
39267;BME280;24967;51.154;13.812;2023-05-12T11:28:17;99547.41;;;25.25;36.04
39267;BME280;24967;51.154;13.812;2023-05-12T11:30:48;99543.94;;;25.13;37.25
39267;BME280;24967;51.154;13.812;2023-05-12T11:33:18;99555.16;;;25.17;36.62
39267;BME280;24967;51.154;13.812;2023-05-12T11:35:45;99551.97;;;25.08;35.88
39267;BME280;24967;51.154;13.812;2023-05-12T11:38:13;99555.69;;;25.02;35.65
39267;BME280;24967;51.154;13.812;2023-05-12T11:40:40;99555.13;;;25.00;36.67
39267;BME280;24967;51.154;13.812;2023-05-12T11:43:09;99557.56;;;24.84;35.99
39267;BME280;24967;51.154;13.812;2023-05-12T11:45:36;99550.31;;;24.90;36.75
39267;BME280;24967;51.154;13.812;2023-05-12T11:48:06;99556.22;;;24.87;35.66
39267;BME280;24967;51.154;13.812;2023-05-12T11:50:36;99554.03;;;25.01;34.12
39267;BME280;24967;51.154;13.812;2023-05-12T11:53:03;99559.38;;;24.96;35.34
39267;BME280;24967;51.154;13.812;2023-05-12T11:55:29;99556.66;;;24.96;35.40
39267;BME280;24967;51.154;13.812;2023-05-12T11:57:59;99557.03;;;24.71;33.85
39267;BME280;24967;51.154;13.812;2023-05-12T12:00:32;99555.06;;;24.83;35.76
39267;BME280;24967;51.154;13.812;2023-05-12T12:03:10;99561.88;;;24.97;34.80
39267;BME280;24967;51.154;13.812;2023-05-12T12:05:37;99563.84;;;25.02;34.18
39267;BME280;24967;51.154;13.812;2023-05-12T12:08:09;99566.22;;;24.98;34.19
39267;BME280;24967;51.154;13.812;2023-05-12T12:10:38;99571.06;;;24.79;34.46
39267;BME280;24967;51.154;13.812;2023-05-12T12:13:04;99568.31;;;24.51;34.54
39267;BME280;24967;51.154;13.812;2023-05-12T12:15:32;99572.47;;;24.30;36.49
39267;BME280;24967;51.154;13.812;2023-05-12T12:17:59;99568.84;;;24.00;34.65
39267;BME280;24967;51.154;13.812;2023-05-12T12:20:25;99575.94;;;24.02;34.62
39267;BME280;24967;51.154;13.812;2023-05-12T12:22:52;99580.28;;;24.14;35.45
39267;BME280;24967;51.154;13.812;2023-05-12T12:25:19;99582.19;;;24.02;35.34
39267;BME280;24967;51.154;13.812;2023-05-12T12:27:46;99579.72;;;24.00;34.98
39267;BME280;24967;51.154;13.812;2023-05-12T12:30:13;99582.66;;;23.99;34.58
39267;BME280;24967;51.154;13.812;2023-05-12T12:32:43;99571.44;;;23.84;34.83
39267;BME280;24967;51.154;13.812;2023-05-12T12:35:09;99580.41;;;23.96;34.58
39267;BME280;24967;51.154;13.812;2023-05-12T12:37:37;99580.19;;;23.97;34.21
39267;BME280;24967;51.154;13.812;2023-05-12T12:40:04;99583.84;;;23.91;35.27
39267;BME280;24967;51.154;13.812;2023-05-12T12:42:33;99578.72;;;23.60;35.88
39267;BME280;24967;51.154;13.812;2023-05-12T12:45:01;99576.41;;;23.98;35.47
39267;BME280;24967;51.154;13.812;2023-05-12T12:47:27;99582.44;;;24.00;36.34
39267;BME280;24967;51.154;13.812;2023-05-12T12:49:55;99582.78;;;24.16;34.71